createdAt,value
2017-07-29T00:01:43.315Z,17.80
2017-07-29T00:04:15.034Z,17.80
2017-07-29T00:06:43.447Z,17.80
2017-07-29T00:09:14.548Z,17.70
2017-07-29T00:11:44.006Z,17.70
2017-07-29T00:14:13.471Z,17.80
2017-07-29T00:16:45.141Z,17.70
2017-07-29T00:19:15.475Z,17.70
2017-07-29T00:21:43.882Z,17.70
2017-07-29T00:24:13.843Z,17.70
2017-07-29T00:26:45.260Z,17.60
2017-07-29T00:29:13.679Z,17.60
2017-07-29T00:31:43.324Z,17.60
2017-07-29T00:34:13.914Z,17.60
2017-07-29T00:36:43.537Z,17.60
2017-07-29T00:39:15.039Z,17.70
2017-07-29T00:41:44.519Z,17.70
2017-07-29T00:44:13.438Z,17.70
2017-07-29T00:46:43.701Z,17.80
2017-07-29T00:52:11.651Z,17.80
2017-07-29T00:54:43.803Z,17.80
2017-07-29T00:57:15.550Z,17.80
2017-07-29T00:59:44.570Z,17.80
2017-07-29T01:02:13.530Z,17.80
2017-07-29T01:04:45.051Z,17.80
2017-07-29T01:07:13.488Z,17.70
2017-07-29T01:09:44.640Z,17.70
2017-07-29T01:12:14.063Z,17.70
2017-07-29T01:14:43.550Z,17.60
2017-07-29T01:17:15.190Z,17.60
2017-07-29T01:19:43.654Z,17.60
2017-07-29T01:25:12.756Z,17.60
2017-07-29T01:27:44.918Z,17.50
2017-07-29T01:30:13.816Z,17.50
2017-07-29T01:32:42.219Z,17.50
2017-07-29T01:35:14.007Z,17.50
2017-07-29T01:37:43.462Z,17.50
2017-07-29T01:40:14.704Z,17.50
2017-07-29T01:42:44.173Z,17.50
2017-07-29T01:45:13.827Z,17.40
2017-07-29T01:47:42.359Z,17.50
2017-07-29T01:50:14.186Z,17.40
2017-07-29T01:52:44.027Z,17.50
2017-07-29T01:55:13.862Z,17.50
2017-07-29T01:57:45.000Z,17.50
2017-07-29T02:00:13.145Z,17.40
2017-07-29T02:02:44.506Z,17.40
2017-07-29T02:05:13.694Z,17.40
2017-07-29T02:07:43.602Z,17.40
2017-07-29T02:10:15.289Z,17.40
2017-07-29T02:12:44.610Z,17.40
2017-07-29T02:15:14.389Z,17.50
2017-07-29T02:17:43.951Z,17.40
2017-07-29T02:20:15.690Z,17.50
2017-07-29T02:22:44.115Z,17.50
2017-07-29T02:25:13.880Z,17.50
2017-07-29T02:27:45.230Z,17.60
2017-07-29T02:30:13.666Z,17.60
2017-07-29T02:32:42.168Z,17.60
2017-07-29T02:35:13.991Z,17.60
2017-07-29T02:37:42.415Z,17.60
2017-07-29T02:40:14.411Z,17.60
2017-07-29T02:42:43.878Z,17.60
2017-07-29T02:45:13.527Z,17.60
2017-07-29T02:47:45.171Z,17.60
2017-07-29T02:50:25.424Z,17.60
2017-07-29T02:52:53.938Z,17.60
2017-07-29T02:55:25.590Z,17.70
2017-07-29T02:57:54.154Z,17.70
2017-07-29T03:00:35.832Z,17.80
2017-07-29T03:03:05.599Z,17.70
2017-07-29T03:05:35.181Z,17.70
2017-07-29T03:08:06.931Z,17.70
2017-07-29T03:10:35.327Z,17.70
2017-07-29T03:16:05.148Z,17.60
2017-07-29T03:18:36.577Z,17.70
2017-07-29T03:21:05.591Z,17.60
2017-07-29T03:23:35.276Z,17.60
2017-07-29T03:26:06.719Z,17.50
2017-07-29T03:28:35.212Z,17.50
2017-07-29T03:31:06.832Z,17.50
2017-07-29T03:33:36.167Z,17.40
2017-07-29T03:36:05.445Z,17.40
2017-07-29T03:38:37.013Z,17.40
2017-07-29T03:41:05.496Z,17.40
2017-07-29T03:43:35.455Z,17.40
2017-07-29T03:46:07.114Z,17.40
2017-07-29T03:51:48.160Z,17.40
2017-07-29T03:54:16.553Z,17.40
2017-07-29T03:56:47.942Z,17.50
2017-07-29T03:59:16.413Z,17.50
2017-07-29T04:01:46.561Z,17.50
2017-07-29T04:04:16.918Z,17.50
2017-07-29T04:06:46.666Z,17.50
2017-07-29T04:11:59.362Z,17.50
2017-07-29T04:14:27.795Z,17.50
2017-07-29T04:16:59.138Z,17.40
2017-07-29T04:19:28.770Z,17.40
2017-07-29T04:21:57.928Z,17.40
2017-07-29T04:24:29.376Z,17.40
2017-07-29T04:26:59.627Z,17.40
2017-07-29T04:29:28.053Z,17.40
2017-07-29T04:31:59.787Z,17.30
2017-07-29T04:40:29.132Z,17.40
2017-07-29T04:42:57.598Z,17.50
2017-07-29T04:45:26.218Z,17.50
2017-07-29T04:47:55.659Z,17.50
2017-07-29T04:50:25.796Z,17.50
2017-07-29T04:52:57.567Z,17.60
2017-07-29T04:55:29.010Z,17.70
2017-07-29T04:57:57.620Z,17.70
2017-07-29T05:00:29.076Z,17.80
2017-07-29T05:02:58.929Z,17.80
2017-07-29T05:05:37.821Z,17.90
2017-07-29T05:08:12.056Z,18.10
2017-07-29T05:10:45.061Z,18.10
2017-07-29T05:16:12.802Z,18.10
2017-07-29T05:18:45.111Z,18.10
2017-07-29T05:21:13.634Z,18.00
2017-07-29T05:26:42.028Z,18.10
2017-07-29T05:29:10.610Z,18.00
2017-07-29T05:31:42.335Z,18.00
2017-07-29T05:34:13.887Z,18.00
2017-07-29T05:36:42.385Z,18.10
2017-07-29T05:39:13.960Z,18.00
2017-07-29T05:41:42.501Z,18.00
2017-07-29T05:47:10.246Z,18.00
2017-07-29T05:49:38.815Z,18.00
2017-07-29T05:52:12.330Z,18.00
2017-07-29T05:54:42.212Z,18.00
2017-07-29T05:57:11.207Z,18.10
2017-07-29T05:59:40.791Z,18.10
2017-07-29T06:02:12.230Z,18.10
2017-07-29T06:04:40.812Z,18.10
2017-07-29T06:07:12.106Z,18.10
2017-07-29T06:09:40.724Z,18.10
2017-07-29T06:12:09.238Z,18.10
2017-07-29T06:14:37.776Z,18.20
2017-07-29T06:17:14.346Z,18.20
2017-07-29T06:19:42.784Z,18.20
2017-07-29T06:22:13.248Z,18.10
2017-07-29T06:24:42.199Z,18.20
2017-07-29T06:27:13.624Z,18.30
2017-07-29T06:29:42.054Z,18.40
2017-07-29T06:32:11.519Z,18.40
2017-07-29T06:34:40.860Z,18.40
2017-07-29T06:37:11.713Z,18.40
2017-07-29T06:39:41.371Z,18.30
2017-07-29T06:42:09.915Z,18.30
2017-07-29T06:44:39.218Z,18.30
2017-07-29T06:47:12.575Z,18.40
2017-07-29T06:49:40.983Z,18.40
2017-07-29T06:52:09.507Z,18.30
2017-07-29T06:54:41.399Z,18.30
2017-07-29T06:57:10.916Z,18.30
2017-07-29T06:59:43.061Z,18.40
2017-07-29T07:02:13.053Z,18.40
2017-07-29T07:04:42.637Z,18.40
2017-07-29T07:07:14.032Z,18.40
2017-07-29T07:09:55.165Z,18.40
2017-07-29T07:12:23.563Z,18.50
2017-07-29T07:14:53.925Z,18.60
2017-07-29T07:17:22.393Z,18.60
2017-07-29T07:19:50.873Z,18.70
2017-07-29T07:22:22.599Z,18.60
2017-07-29T07:24:54.282Z,18.60
2017-07-29T07:27:23.703Z,18.60
2017-07-29T07:29:53.338Z,18.60
2017-07-29T07:32:21.741Z,18.70
2017-07-29T07:34:54.480Z,18.70
2017-07-29T07:37:23.299Z,18.80
2017-07-29T07:39:53.072Z,18.80
2017-07-29T07:42:22.250Z,18.80
2017-07-29T07:44:54.401Z,18.90
2017-07-29T07:47:22.806Z,19.00
2017-07-29T07:49:58.010Z,19.00
2017-07-29T07:52:26.402Z,18.90
2017-07-29T07:54:55.621Z,19.10
2017-07-29T07:57:26.949Z,19.50
2017-07-29T07:59:56.659Z,19.90
2017-07-29T08:02:27.953Z,20.10
2017-07-29T08:04:56.341Z,20.40
2017-07-29T08:07:26.284Z,20.60
2017-07-29T08:09:56.399Z,20.70
2017-07-29T08:12:26.655Z,20.80
2017-07-29T08:14:56.983Z,20.80
2017-07-29T08:17:27.204Z,20.70
2017-07-29T08:19:56.179Z,20.80
2017-07-29T08:22:24.576Z,21.00
2017-07-29T08:24:58.927Z,21.20
2017-07-29T08:27:27.335Z,21.30
2017-07-29T08:29:57.260Z,21.50
2017-07-29T08:32:26.623Z,21.70
2017-07-29T08:34:55.068Z,21.70
2017-07-29T08:37:26.945Z,21.90
2017-07-29T08:39:55.983Z,21.90
2017-07-29T08:42:24.544Z,22.10
2017-07-29T08:44:56.797Z,22.20
2017-07-29T08:47:26.918Z,22.40
2017-07-29T08:49:57.077Z,22.60
2017-07-29T08:52:27.397Z,22.80
2017-07-29T08:54:57.908Z,22.90
2017-07-29T08:57:26.758Z,23.00
2017-07-29T08:59:57.370Z,23.10
2017-07-29T09:02:27.882Z,23.30
2017-07-29T09:04:57.516Z,23.30
2017-07-29T09:07:25.916Z,23.20
2017-07-29T09:09:58.427Z,23.20
2017-07-29T09:12:26.815Z,23.40
2017-07-29T09:14:56.958Z,23.70
2017-07-29T09:17:27.103Z,23.90
2017-07-29T09:19:57.102Z,23.70
2017-07-29T09:22:28.889Z,23.60
2017-07-29T09:24:57.306Z,23.60
2017-07-29T09:27:26.422Z,23.60
2017-07-29T09:29:57.363Z,23.30
2017-07-29T09:32:26.886Z,23.60
2017-07-29T09:34:56.753Z,23.60
2017-07-29T09:37:26.917Z,23.80
2017-07-29T09:39:56.429Z,24.00
2017-07-29T09:42:24.882Z,24.00
2017-07-29T09:44:53.459Z,24.10
2017-07-29T09:47:24.650Z,24.50
2017-07-29T09:49:55.408Z,24.60
2017-07-29T09:52:26.581Z,24.90
2017-07-29T09:54:57.224Z,25.00
2017-07-29T09:57:26.444Z,24.90
2017-07-29T09:59:57.247Z,24.80
2017-07-29T10:02:27.447Z,24.70
2017-07-29T10:04:55.848Z,24.70
2017-07-29T10:07:24.353Z,24.50
2017-07-29T10:09:52.749Z,24.30
2017-07-29T10:12:27.470Z,24.50
2017-07-29T10:14:56.931Z,24.90
2017-07-29T10:17:25.387Z,25.20
2017-07-29T10:19:56.263Z,24.90
2017-07-29T10:22:25.476Z,25.30
2017-07-29T10:24:56.914Z,25.80
2017-07-29T10:27:26.972Z,26.10
2017-07-29T10:29:55.367Z,26.10
2017-07-29T10:32:23.772Z,26.00
2017-07-29T10:34:53.451Z,26.20
2017-07-29T10:37:23.296Z,26.10
2017-07-29T10:39:52.870Z,26.30
2017-07-29T10:42:24.920Z,26.30
2017-07-29T10:44:56.216Z,26.40
2017-07-29T10:47:25.589Z,26.30
2017-07-29T10:49:54.919Z,26.20
2017-07-29T10:52:26.375Z,25.60
2017-07-29T10:57:38.610Z,25.50
2017-07-29T11:00:07.882Z,25.70
2017-07-29T11:02:36.305Z,25.70
2017-07-29T11:05:05.591Z,25.60
2017-07-29T11:07:36.897Z,25.80
2017-07-29T11:10:06.059Z,26.30
2017-07-29T11:12:34.706Z,26.70
2017-07-29T11:15:06.371Z,26.50
2017-07-29T11:17:37.826Z,26.20
2017-07-29T11:20:07.099Z,25.70
2017-07-29T11:22:37.120Z,25.40
2017-07-29T11:25:06.484Z,25.20
2017-07-29T11:27:35.733Z,25.00
2017-07-29T11:30:07.490Z,24.50
2017-07-29T11:32:36.137Z,24.30
2017-07-29T11:35:06.640Z,24.10
2017-07-29T11:37:35.209Z,24.20
2017-07-29T11:40:06.115Z,24.40
2017-07-29T11:42:34.605Z,24.50
2017-07-29T11:45:04.318Z,24.70
2017-07-29T11:47:35.176Z,24.90
2017-07-29T11:50:03.709Z,25.00
2017-07-29T11:52:32.167Z,25.20
2017-07-29T11:55:00.578Z,24.90
2017-07-29T11:57:28.999Z,24.80
2017-07-29T11:59:57.394Z,25.00
2017-07-29T12:02:26.773Z,24.70
2017-07-29T12:04:58.659Z,24.70
2017-07-29T12:07:27.088Z,24.50
2017-07-29T12:09:57.575Z,24.60
2017-07-29T12:12:28.731Z,24.30
2017-07-29T12:14:58.075Z,24.20
2017-07-29T12:17:27.422Z,24.00
2017-07-29T12:19:57.416Z,24.00
2017-07-29T12:22:26.434Z,23.80
2017-07-29T12:24:55.400Z,23.60
2017-07-29T12:27:25.694Z,23.60
2017-07-29T12:29:54.193Z,23.50
2017-07-29T12:32:22.595Z,23.40
2017-07-29T12:34:50.988Z,23.30
2017-07-29T12:37:22.065Z,23.40
2017-07-29T12:39:50.727Z,23.60
2017-07-29T12:42:19.230Z,24.00
2017-07-29T12:44:47.847Z,24.30
2017-07-29T12:47:16.452Z,24.50
2017-07-29T12:49:45.216Z,24.60
2017-07-29T12:52:13.814Z,24.60
2017-07-29T12:57:21.658Z,24.60
2017-07-29T12:59:56.807Z,24.60
2017-07-29T13:02:25.726Z,24.60
2017-07-29T13:04:54.114Z,24.60
2017-07-29T13:07:23.536Z,24.40
2017-07-29T13:09:53.242Z,24.30
2017-07-29T13:12:21.928Z,24.20
2017-07-29T13:14:50.502Z,24.20
2017-07-29T13:17:20.361Z,24.40
2017-07-29T13:19:52.132Z,24.40
2017-07-29T13:22:21.159Z,24.60
2017-07-29T13:24:49.795Z,24.60
2017-07-29T13:27:20.033Z,24.70
2017-07-29T13:29:48.259Z,24.50
2017-07-29T13:32:19.913Z,24.20
2017-07-29T13:34:55.693Z,24.00
2017-07-29T13:37:24.104Z,23.80
2017-07-29T13:39:52.497Z,23.90
2017-07-29T13:42:21.892Z,24.20
2017-07-29T13:44:51.173Z,24.50
2017-07-29T13:47:28.392Z,24.80
2017-07-29T13:49:56.814Z,24.80
2017-07-29T13:52:25.233Z,24.90
2017-07-29T13:54:53.193Z,24.90
2017-07-29T13:57:22.908Z,25.20
2017-07-29T13:59:51.664Z,25.20
2017-07-29T14:02:20.391Z,25.40
2017-07-29T14:04:51.326Z,25.70
2017-07-29T14:07:20.739Z,25.70
2017-07-29T14:09:49.279Z,25.80
2017-07-29T14:12:22.580Z,26.00
2017-07-29T14:14:53.596Z,25.90
2017-07-29T14:17:26.789Z,26.10
2017-07-29T14:19:57.085Z,26.10
2017-07-29T14:22:30.321Z,26.00
2017-07-29T14:25:01.760Z,25.80
2017-07-29T14:27:31.352Z,25.70
2017-07-29T14:29:59.923Z,25.60
2017-07-29T14:32:29.213Z,25.70
2017-07-29T14:34:58.528Z,25.80
2017-07-29T14:37:29.781Z,26.00
2017-07-29T14:40:00.313Z,26.30
2017-07-29T14:42:34.763Z,26.40
2017-07-29T14:45:07.625Z,26.50
2017-07-29T14:47:35.954Z,26.30
2017-07-29T14:50:05.762Z,26.10
2017-07-29T14:52:34.762Z,26.00
2017-07-29T14:55:05.075Z,26.00
2017-07-29T14:57:33.327Z,25.90
2017-07-29T15:00:01.552Z,25.80
2017-07-29T15:02:29.992Z,25.70
2017-07-29T15:04:58.423Z,25.60
2017-07-29T15:07:27.625Z,25.60
2017-07-29T15:09:56.087Z,25.70
2017-07-29T15:12:26.402Z,26.00
2017-07-29T15:14:54.980Z,26.10
2017-07-29T15:17:23.576Z,26.40
2017-07-29T15:19:53.404Z,26.50
2017-07-29T15:22:23.398Z,26.60
2017-07-29T15:24:51.869Z,26.70
2017-07-29T15:27:22.593Z,26.70
2017-07-29T15:29:55.007Z,26.60
2017-07-29T15:32:27.581Z,26.40
2017-07-29T15:34:56.662Z,26.30
2017-07-29T15:37:27.336Z,26.20
2017-07-29T15:39:56.331Z,26.10
2017-07-29T15:42:28.783Z,26.20
2017-07-29T15:44:58.543Z,26.30
2017-07-29T15:47:27.142Z,26.30
2017-07-29T15:49:58.643Z,26.30
2017-07-29T15:52:28.410Z,26.50
2017-07-29T15:54:57.529Z,26.50
2017-07-29T15:57:28.276Z,26.40
2017-07-29T15:59:57.991Z,26.10
2017-07-29T16:02:26.560Z,26.00
2017-07-29T16:05:01.716Z,26.00
2017-07-29T16:07:30.134Z,26.10
2017-07-29T16:09:58.639Z,26.20
2017-07-29T16:12:27.167Z,26.20
2017-07-29T16:14:55.838Z,26.30
2017-07-29T16:17:28.199Z,26.40
2017-07-29T16:19:58.623Z,26.40
2017-07-29T16:22:27.271Z,26.40
2017-07-29T16:24:55.922Z,26.40
2017-07-29T16:27:27.168Z,26.40
2017-07-29T16:29:56.776Z,26.30
2017-07-29T16:32:25.570Z,26.40
2017-07-29T16:34:54.123Z,26.50
2017-07-29T16:37:24.763Z,26.50
2017-07-29T16:39:53.342Z,26.40
2017-07-29T16:42:21.857Z,26.30
2017-07-29T16:44:50.502Z,26.30
2017-07-29T16:47:20.094Z,26.40
2017-07-29T16:49:48.922Z,26.50
2017-07-29T16:52:18.480Z,26.40
2017-07-29T16:54:48.479Z,26.50
2017-07-29T16:57:18.336Z,26.50
2017-07-29T16:59:48.484Z,26.50
2017-07-29T17:02:34.196Z,26.50
2017-07-29T17:05:02.655Z,26.40
2017-07-29T17:07:31.124Z,26.40
2017-07-29T17:09:59.724Z,26.40
2017-07-29T17:12:28.267Z,26.30
2017-07-29T17:14:56.672Z,26.30
2017-07-29T17:17:30.347Z,26.20
2017-07-29T17:19:59.259Z,26.10
2017-07-29T17:22:28.730Z,26.10
2017-07-29T17:24:58.032Z,26.10
2017-07-29T17:27:26.509Z,26.10
2017-07-29T17:29:55.743Z,26.10
2017-07-29T17:32:24.204Z,26.00
2017-07-29T17:34:52.673Z,26.10
2017-07-29T17:37:22.203Z,26.10
2017-07-29T17:39:50.702Z,26.10
2017-07-29T17:42:19.252Z,26.10
2017-07-29T17:44:48.542Z,26.20
2017-07-29T17:47:31.766Z,26.30
2017-07-29T17:50:00.248Z,26.20
2017-07-29T17:52:28.725Z,26.10
2017-07-29T17:55:01.403Z,26.10
2017-07-29T17:57:29.861Z,26.00
2017-07-29T18:00:00.396Z,25.80
2017-07-29T18:02:28.851Z,25.70
2017-07-29T18:04:57.403Z,25.60
2017-07-29T18:07:26.006Z,25.50
2017-07-29T18:09:59.881Z,25.50
2017-07-29T18:12:28.460Z,25.40
2017-07-29T18:14:57.020Z,25.30
2017-07-29T18:17:27.042Z,25.30
2017-07-29T18:20:01.629Z,25.20
2017-07-29T18:22:31.658Z,25.20
2017-07-29T18:25:08.024Z,25.00
2017-07-29T18:27:38.216Z,25.00
2017-07-29T18:30:08.287Z,24.90
2017-07-29T18:32:36.930Z,24.90
2017-07-29T18:35:06.878Z,24.80
2017-07-29T18:37:36.240Z,24.80
2017-07-29T18:40:05.467Z,24.70
2017-07-29T18:42:34.453Z,24.70
2017-07-29T18:45:03.813Z,24.70
2017-07-29T18:47:32.516Z,24.60
2017-07-29T18:50:01.179Z,24.50
2017-07-29T18:52:29.630Z,24.50
2017-07-29T18:54:59.491Z,24.50
2017-07-29T18:57:29.708Z,24.50
2017-07-29T18:59:59.983Z,24.50
2017-07-29T19:02:29.092Z,24.50
2017-07-29T19:04:57.698Z,24.40
2017-07-29T19:07:27.841Z,24.40
2017-07-29T19:09:58.812Z,24.40
2017-07-29T19:12:27.641Z,24.40
2017-07-29T19:14:56.248Z,24.40
2017-07-29T19:17:24.872Z,24.40
2017-07-29T19:19:53.528Z,24.40
2017-07-29T19:22:22.211Z,24.30
2017-07-29T19:24:50.887Z,24.30
2017-07-29T19:27:21.520Z,24.30
2017-07-29T19:29:50.243Z,24.20
2017-07-29T19:32:18.727Z,24.10
2017-07-29T19:34:48.655Z,24.10
2017-07-29T19:37:18.547Z,24.10
2017-07-29T19:39:51.246Z,24.10
2017-07-29T19:42:19.809Z,24.00
2017-07-29T19:44:49.354Z,23.90
2017-07-29T19:47:20.233Z,23.90
2017-07-29T19:49:51.789Z,23.90
2017-07-29T19:52:21.763Z,23.90
2017-07-29T19:54:50.615Z,23.90
2017-07-29T19:57:21.052Z,23.90
2017-07-29T19:59:58.541Z,23.90
2017-07-29T20:02:30.805Z,23.90
2017-07-29T20:05:00.923Z,23.90
2017-07-29T20:07:29.483Z,23.90
2017-07-29T20:09:58.146Z,23.90
2017-07-29T20:12:27.460Z,23.90
2017-07-29T20:14:55.947Z,23.90
2017-07-29T20:17:25.260Z,23.90
2017-07-29T20:19:53.725Z,23.90
2017-07-29T20:22:22.277Z,23.80
2017-07-29T20:24:58.083Z,23.80
2017-07-29T20:27:26.612Z,23.70
2017-07-29T20:29:58.298Z,23.70
2017-07-29T20:32:27.652Z,23.70
2017-07-29T20:34:56.210Z,23.70
2017-07-29T20:37:24.851Z,23.70
2017-07-29T20:39:53.278Z,23.70
2017-07-29T20:42:22.545Z,23.70
2017-07-29T20:44:51.059Z,23.70
2017-07-29T20:47:19.681Z,23.80
2017-07-29T20:49:48.252Z,23.80
2017-07-29T20:52:16.924Z,23.80
2017-07-29T20:54:45.391Z,23.80
2017-07-29T20:57:13.798Z,23.70
2017-07-29T20:59:42.332Z,23.70
2017-07-29T21:02:10.750Z,23.70
2017-07-29T21:04:39.193Z,23.70
2017-07-29T21:07:07.608Z,23.70
2017-07-29T21:09:37.137Z,23.70
2017-07-29T21:12:05.713Z,23.80
2017-07-29T21:14:41.030Z,23.80
2017-07-29T21:17:09.464Z,23.70
2017-07-29T21:19:37.954Z,23.70
2017-07-29T21:22:06.668Z,23.70
2017-07-29T21:24:36.047Z,23.70
2017-07-29T21:27:08.372Z,23.70
2017-07-29T21:29:39.728Z,23.70
2017-07-29T21:32:08.400Z,23.80
2017-07-29T21:34:36.969Z,23.80
2017-07-29T21:37:05.400Z,23.80
2017-07-29T21:39:34.027Z,23.80
2017-07-29T21:42:03.470Z,23.80
2017-07-29T21:44:32.044Z,23.80
2017-07-29T21:47:00.721Z,23.70
2017-07-29T21:49:29.141Z,23.80
2017-07-29T21:51:58.283Z,23.80
2017-07-29T21:54:27.084Z,23.70
2017-07-29T21:56:55.547Z,23.80
2017-07-29T21:59:24.243Z,23.70
2017-07-29T22:01:53.167Z,23.70
2017-07-29T22:04:21.807Z,23.70
2017-07-29T22:06:50.975Z,23.70
2017-07-29T22:09:24.579Z,23.60
2017-07-29T22:11:53.121Z,23.60
2017-07-29T22:14:21.704Z,23.60
2017-07-29T22:16:50.435Z,23.60
2017-07-29T22:19:18.930Z,23.60
2017-07-29T22:21:48.440Z,23.60
2017-07-29T22:24:17.832Z,23.60
2017-07-29T22:26:46.383Z,23.50
2017-07-29T22:29:15.853Z,23.40
2017-07-29T22:31:44.541Z,23.40
2017-07-29T22:34:13.479Z,23.40
2017-07-29T22:36:42.050Z,23.40
2017-07-29T22:39:10.638Z,23.40
2017-07-29T22:41:39.164Z,23.40
2017-07-29T22:44:07.819Z,23.40
2017-07-29T22:46:36.362Z,23.30
2017-07-29T22:49:04.778Z,23.30
2017-07-29T22:51:33.439Z,23.30
2017-07-29T22:54:01.866Z,23.20
2017-07-29T22:56:30.265Z,23.20
2017-07-29T22:58:59.088Z,23.20
2017-07-29T23:01:28.189Z,23.20
2017-07-29T23:03:56.615Z,23.20
2017-07-29T23:06:25.168Z,23.20
2017-07-29T23:08:53.718Z,23.20
2017-07-29T23:11:27.871Z,23.20
2017-07-29T23:13:57.854Z,23.20
2017-07-29T23:16:27.661Z,23.20
2017-07-29T23:18:57.265Z,23.20
2017-07-29T23:21:25.864Z,23.30
2017-07-29T23:23:54.501Z,23.30
2017-07-29T23:26:22.927Z,23.30
2017-07-29T23:28:52.230Z,23.30
2017-07-29T23:31:29.681Z,23.30
2017-07-29T23:33:58.397Z,23.40
2017-07-29T23:36:27.269Z,23.50
2017-07-29T23:38:57.701Z,23.50
2017-07-29T23:41:26.305Z,23.40
2017-07-29T23:43:54.999Z,23.40
2017-07-29T23:46:23.744Z,23.50
2017-07-29T23:48:52.401Z,23.50
2017-07-29T23:51:21.193Z,23.50
2017-07-29T23:53:49.776Z,23.50
2017-07-29T23:56:18.372Z,23.40
2017-07-29T23:58:52.571Z,23.50
